createdAt,value
2023-01-13T00:01:12.616Z,99865.00
2023-01-13T00:03:39.565Z,99858.03
2023-01-13T00:06:07.874Z,99872.22
2023-01-13T00:08:34.538Z,99872.22
2023-01-13T00:11:01.261Z,99862.47
2023-01-13T00:13:27.910Z,99868.72
2023-01-13T00:15:58.679Z,99860.72
2023-01-13T00:18:25.726Z,99860.78
2023-01-13T00:21:21.969Z,99858.03
2023-01-13T00:23:48.711Z,99856.34
2023-01-13T00:26:18.238Z,99864.28
2023-01-13T00:28:44.895Z,99856.41
2023-01-13T00:31:14.216Z,99861.69
2023-01-13T00:33:41.199Z,99858.13
2023-01-13T00:36:10.203Z,99858.25
2023-01-13T00:38:38.878Z,99866.94
2023-01-13T00:41:08.334Z,99868.97
2023-01-13T00:43:36.280Z,99868.84
2023-01-13T00:46:04.583Z,99868.91
2023-01-13T00:48:31.749Z,99858.28
2023-01-13T00:51:07.338Z,99858.28
2023-01-13T00:53:35.996Z,99852.91
2023-01-13T00:56:41.041Z,99856.59
2023-01-13T00:59:12.121Z,99852.19
2023-01-13T01:01:39.461Z,99850.38
2023-01-13T01:04:06.606Z,99849.44
2023-01-13T01:06:33.199Z,99850.47
2023-01-13T01:08:59.789Z,99853.13
2023-01-13T01:11:31.148Z,99846.00
2023-01-13T01:13:59.650Z,99860.31
2023-01-13T01:16:28.249Z,99847.81
2023-01-13T01:18:55.635Z,99853.03
2023-01-13T01:21:24.593Z,99846.97
2023-01-13T01:23:51.520Z,99847.81
2023-01-13T01:26:20.565Z,99850.53
2023-01-13T01:28:47.793Z,99853.25
2023-01-13T01:31:17.072Z,99853.22
2023-01-13T01:33:44.069Z,99851.44
2023-01-13T01:36:12.402Z,99844.44
2023-01-13T01:38:39.039Z,99840.94
2023-01-13T01:41:06.159Z,99846.16
2023-01-13T01:44:00.508Z,99848.13
2023-01-13T01:46:27.754Z,99848.03
2023-01-13T01:48:57.627Z,99846.28
2023-01-13T01:51:24.373Z,99842.78
2023-01-13T01:53:51.551Z,99843.59
2023-01-13T01:56:19.193Z,99834.84
2023-01-13T01:58:47.518Z,99842.72
2023-01-13T02:01:15.423Z,99841.06
2023-01-13T02:03:44.552Z,99837.47
2023-01-13T02:06:12.367Z,99826.91
2023-01-13T02:08:40.530Z,99830.50
2023-01-13T02:11:27.353Z,99833.97
2023-01-13T02:13:54.031Z,99833.97
2023-01-13T02:16:24.429Z,99824.31
2023-01-13T02:19:11.142Z,99826.97
2023-01-13T02:21:56.280Z,99818.97
2023-01-13T02:24:55.096Z,99809.09
2023-01-13T02:27:37.115Z,99809.22
2023-01-13T02:30:35.805Z,99805.69
2023-01-13T02:33:18.080Z,99802.25
2023-01-13T02:35:57.899Z,99798.75
2023-01-13T02:38:30.354Z,99804.91
2023-01-13T02:41:21.041Z,99796.09
2023-01-13T02:44:08.335Z,99795.94
2023-01-13T02:47:04.556Z,99791.56
2023-01-13T02:49:45.545Z,99793.34
2023-01-13T02:52:26.139Z,99780.94
2023-01-13T02:54:59.897Z,99779.13
2023-01-13T02:57:27.155Z,99768.47
2023-01-13T02:59:55.220Z,99765.94
2023-01-13T03:02:22.684Z,99773.94
2023-01-13T03:05:00.654Z,99768.53
2023-01-13T03:07:42.398Z,99770.50
2023-01-13T03:10:30.784Z,99763.28
2023-01-13T03:13:33.134Z,99766.88
2023-01-13T03:16:29.953Z,99763.41
2023-01-13T03:19:02.215Z,99757.16
2023-01-13T03:21:48.894Z,99754.59
2023-01-13T03:24:34.292Z,99752.78
2023-01-13T03:27:16.232Z,99750.13
2023-01-13T03:30:03.966Z,99748.31
2023-01-13T03:32:33.966Z,99755.53
2023-01-13T03:35:18.014Z,99751.09
2023-01-13T03:37:47.929Z,99744.81
2023-01-13T03:40:20.885Z,99751.03
2023-01-13T03:43:13.932Z,99743.91
2023-01-13T03:45:41.431Z,99751.00
2023-01-13T03:48:12.596Z,99743.91
2023-01-13T03:50:42.247Z,99742.22
2023-01-13T03:53:19.935Z,99736.00
2023-01-13T03:55:51.423Z,99736.06
2023-01-13T03:58:20.488Z,99733.44
2023-01-13T04:00:58.428Z,99739.56
2023-01-13T04:03:42.818Z,99726.28
2023-01-13T04:06:14.327Z,99734.44
2023-01-13T04:08:49.785Z,99736.00
2023-01-13T04:11:21.798Z,99730.75
2023-01-13T04:13:49.732Z,99738.69
2023-01-13T04:16:16.334Z,99735.13
2023-01-13T04:18:42.924Z,99726.34
2023-01-13T04:21:09.503Z,99732.59
2023-01-13T04:23:36.126Z,99735.25
2023-01-13T04:26:03.188Z,99731.69
2023-01-13T04:28:29.772Z,99727.25
2023-01-13T04:30:56.454Z,99716.66
2023-01-13T04:33:23.201Z,99712.22
2023-01-13T04:35:49.951Z,99712.22
2023-01-13T04:38:18.830Z,99719.31
2023-01-13T04:40:45.704Z,99715.88
2023-01-13T04:43:12.685Z,99712.22
2023-01-13T04:45:39.244Z,99714.94
2023-01-13T04:48:06.130Z,99716.63
2023-01-13T04:50:32.687Z,99722.06
2023-01-13T04:53:01.161Z,99707.97
2023-01-13T04:55:28.020Z,99722.06
2023-01-13T04:57:54.613Z,99723.81
2023-01-13T05:00:22.953Z,99717.69
2023-01-13T05:02:50.935Z,99722.88
2023-01-13T05:05:17.952Z,99725.53
2023-01-13T05:07:44.585Z,99716.72
2023-01-13T05:10:11.425Z,99708.75
2023-01-13T05:12:56.899Z,99716.53
2023-01-13T05:15:42.534Z,99714.88
2023-01-13T05:18:09.512Z,99703.41
2023-01-13T05:20:36.169Z,99704.25
2023-01-13T05:23:22.125Z,99700.03
2023-01-13T05:25:49.121Z,99692.81
2023-01-13T05:28:16.202Z,99701.69
2023-01-13T05:30:46.073Z,99707.09
2023-01-13T05:33:15.654Z,99696.50
2023-01-13T05:35:43.551Z,99699.13
2023-01-13T05:38:10.197Z,99698.22
2023-01-13T05:40:56.625Z,99692.94
2023-01-13T05:43:26.425Z,99699.94
2023-01-13T05:45:55.765Z,99704.44
2023-01-13T05:48:24.220Z,99698.25
2023-01-13T05:50:50.999Z,99701.91
2023-01-13T05:53:18.465Z,99708.13
2023-01-13T05:55:45.594Z,99707.19
2023-01-13T05:58:13.768Z,99700.09
2023-01-13T06:00:41.908Z,99692.94
2023-01-13T06:03:08.895Z,99704.41
2023-01-13T06:05:35.757Z,99690.28
2023-01-13T06:08:03.815Z,99685.91
2023-01-13T06:10:30.785Z,99680.50
2023-01-13T06:12:57.501Z,99694.69
2023-01-13T06:15:24.395Z,99698.34
2023-01-13T06:17:51.042Z,99716.06
2023-01-13T06:20:18.137Z,99716.13
2023-01-13T06:22:47.960Z,99716.13
2023-01-13T06:25:39.272Z,99707.19
2023-01-13T06:28:05.895Z,99713.34
2023-01-13T06:30:36.824Z,99700.00
2023-01-13T06:33:05.205Z,99708.00
2023-01-13T06:35:34.403Z,99709.84
2023-01-13T06:38:03.630Z,99708.91
2023-01-13T06:40:30.348Z,99695.72
2023-01-13T06:43:16.922Z,99700.88
2023-01-13T06:45:48.420Z,99691.25
2023-01-13T06:48:15.273Z,99702.81
2023-01-13T06:50:42.338Z,99700.09
2023-01-13T06:53:09.522Z,99700.16
2023-01-13T06:55:36.246Z,99701.91
2023-01-13T06:58:02.881Z,99714.34
2023-01-13T07:00:29.524Z,99709.00
2023-01-13T07:03:07.158Z,99719.69
2023-01-13T07:05:33.859Z,99723.31
2023-01-13T07:08:00.678Z,99717.91
2023-01-13T07:10:27.240Z,99724.13
2023-01-13T07:13:12.194Z,99710.75
2023-01-13T07:15:38.808Z,99710.78
2023-01-13T07:18:05.451Z,99725.00
2023-01-13T07:20:32.021Z,99728.53
2023-01-13T07:22:58.760Z,99721.50
2023-01-13T07:25:25.542Z,99719.75
2023-01-13T07:27:52.116Z,99715.25
2023-01-13T07:30:18.938Z,99713.41
2023-01-13T07:32:45.569Z,99708.22
2023-01-13T07:35:12.272Z,99710.03
2023-01-13T07:37:39.580Z,99709.03
2023-01-13T07:40:06.842Z,99707.34
2023-01-13T07:42:52.262Z,99706.44
2023-01-13T07:45:18.832Z,99702.13
2023-01-13T07:47:45.477Z,99712.78
2023-01-13T07:50:12.052Z,99714.56
2023-01-13T07:52:38.659Z,99711.94
2023-01-13T07:55:05.574Z,99716.34
2023-01-13T07:57:32.121Z,99710.53
2023-01-13T07:59:58.707Z,99716.16
2023-01-13T08:02:25.420Z,99717.91
2023-01-13T08:04:52.059Z,99728.31
2023-01-13T08:07:18.825Z,99712.00
2023-01-13T08:09:45.411Z,99710.84
2023-01-13T08:12:30.666Z,99729.34
2023-01-13T08:14:57.282Z,99719.22
2023-01-13T08:17:24.373Z,99714.53
2023-01-13T08:19:50.939Z,99726.00
2023-01-13T08:22:17.518Z,99721.44
2023-01-13T08:24:44.128Z,99717.75
2023-01-13T08:27:10.696Z,99720.44
2023-01-13T08:29:37.363Z,99715.19
2023-01-13T08:32:04.122Z,99715.84
2023-01-13T08:34:30.863Z,99726.53
2023-01-13T08:36:57.428Z,99736.44
2023-01-13T08:39:25.127Z,99727.56
2023-01-13T08:41:58.454Z,99729.44
2023-01-13T08:44:30.225Z,99739.19
2023-01-13T08:46:57.332Z,99740.00
2023-01-13T08:49:24.838Z,99756.09
2023-01-13T08:51:52.502Z,99760.41
2023-01-13T08:54:19.434Z,99762.34
2023-01-13T08:56:47.055Z,99768.59
2023-01-13T08:59:18.236Z,99778.63
2023-01-13T09:01:45.470Z,99777.59
2023-01-13T09:04:19.519Z,99777.59
2023-01-13T09:06:47.257Z,99769.50
2023-01-13T09:09:14.078Z,99762.41
2023-01-13T09:12:01.888Z,99777.72
2023-01-13T09:14:31.244Z,99776.88
2023-01-13T09:16:58.442Z,99778.53
2023-01-13T09:19:25.418Z,99781.28
2023-01-13T09:21:52.719Z,99776.88
2023-01-13T09:24:20.031Z,99790.22
2023-01-13T09:26:46.908Z,99792.06
2023-01-13T09:29:13.859Z,99792.13
2023-01-13T09:31:43.159Z,99795.09
2023-01-13T09:34:35.904Z,99805.63
2023-01-13T09:37:03.385Z,99807.47
2023-01-13T09:39:29.974Z,99804.94
2023-01-13T09:42:16.705Z,99814.84
2023-01-13T09:44:46.218Z,99828.00
2023-01-13T09:47:23.255Z,99822.56
2023-01-13T09:49:49.841Z,99817.38
2023-01-13T09:52:19.460Z,99814.75
2023-01-13T09:54:57.916Z,99821.09
2023-01-13T09:57:27.627Z,99818.53
2023-01-13T09:59:54.233Z,99822.75
2023-01-13T10:02:40.195Z,99822.75
2023-01-13T10:05:32.274Z,99827.28
2023-01-13T10:08:05.281Z,99828.19
2023-01-13T10:10:42.001Z,99824.63
2023-01-13T10:13:24.152Z,99826.44
2023-01-13T10:16:03.226Z,99825.75
2023-01-13T10:18:42.110Z,99822.91
2023-01-13T10:21:23.037Z,99829.34
2023-01-13T10:24:18.523Z,99829.47
2023-01-13T10:26:50.942Z,99832.88
2023-01-13T10:29:24.990Z,99828.44
2023-01-13T10:31:55.515Z,99838.31
2023-01-13T10:34:23.860Z,99848.16
2023-01-13T10:37:08.135Z,99841.88
2023-01-13T10:39:46.307Z,99848.97
2023-01-13T10:42:15.251Z,99842.06
2023-01-13T10:44:58.955Z,99846.44
2023-01-13T10:47:28.379Z,99850.03
2023-01-13T10:50:13.160Z,99851.81
2023-01-13T10:52:43.463Z,99861.75
2023-01-13T10:55:32.025Z,99839.38
2023-01-13T10:58:12.156Z,99848.25
2023-01-13T11:00:38.726Z,99863.47
2023-01-13T11:03:24.505Z,99873.16
2023-01-13T11:05:55.025Z,99863.50
2023-01-13T11:08:41.517Z,99865.25
2023-01-13T11:11:33.731Z,99863.22
2023-01-13T11:14:21.133Z,99883.59
2023-01-13T11:16:53.618Z,99867.59
2023-01-13T11:19:22.719Z,99874.56
2023-01-13T11:21:53.925Z,99876.22
2023-01-13T11:24:27.907Z,99885.94
2023-01-13T11:27:02.371Z,99881.44
2023-01-13T11:30:03.885Z,99892.03
2023-01-13T11:32:34.432Z,99888.47
2023-01-13T11:35:05.108Z,99883.25
2023-01-13T11:37:33.183Z,99894.13
2023-01-13T11:40:14.453Z,99871.88
2023-01-13T11:42:50.159Z,99871.63
2023-01-13T11:45:22.649Z,99885.09
2023-01-13T11:47:52.376Z,99892.09
2023-01-13T11:50:31.264Z,99882.44
2023-01-13T11:53:10.510Z,99909.16
2023-01-13T11:56:02.875Z,99904.91
2023-01-13T11:58:49.500Z,99907.88
2023-01-13T12:01:28.514Z,99913.41
2023-01-13T12:04:01.113Z,99911.59
2023-01-13T12:06:39.107Z,99913.53
2023-01-13T12:09:21.303Z,99938.38
2023-01-13T12:12:27.803Z,99922.53
2023-01-13T12:15:22.526Z,99922.41
2023-01-13T12:18:07.574Z,99922.50
2023-01-13T12:20:58.557Z,99938.53
2023-01-13T12:23:46.321Z,99935.91
2023-01-13T12:26:16.503Z,99939.47
2023-01-13T12:29:05.340Z,99945.63
2023-01-13T12:31:35.719Z,99938.72
2023-01-13T12:34:32.735Z,99948.31
2023-01-13T12:37:08.467Z,99952.84
2023-01-13T12:39:51.405Z,99952.00
2023-01-13T12:42:42.974Z,99954.56
2023-01-13T12:45:12.547Z,99951.94
2023-01-13T12:47:40.099Z,99954.69
2023-01-13T12:50:28.059Z,99956.53
2023-01-13T12:52:59.661Z,99966.28
2023-01-13T12:55:35.173Z,99968.59
2023-01-13T12:58:04.675Z,99973.25
2023-01-13T13:00:58.216Z,99968.75
2023-01-13T13:03:30.749Z,99978.53
2023-01-13T13:06:08.535Z,99969.63
2023-01-13T13:08:44.160Z,99969.63
2023-01-13T13:11:32.182Z,99983.13
2023-01-13T13:14:00.427Z,100000.00
2023-01-13T13:16:27.065Z,100000.88
2023-01-13T13:19:22.637Z,99996.28
2023-01-13T13:22:18.147Z,100010.47
2023-01-13T13:24:50.819Z,100008.72
2023-01-13T13:27:36.895Z,100016.78
2023-01-13T13:30:23.468Z,100019.53
2023-01-13T13:33:00.307Z,100031.09
2023-01-13T13:35:37.624Z,100031.00
2023-01-13T13:38:25.752Z,100030.97
2023-01-13T13:41:10.818Z,100039.84
2023-01-13T13:44:03.519Z,100025.66
2023-01-13T13:46:47.444Z,100029.34
2023-01-13T13:49:13.953Z,100040.88
2023-01-13T13:51:46.437Z,100041.44
2023-01-13T13:54:19.546Z,100046.56
2023-01-13T13:56:47.111Z,100045.38
2023-01-13T13:59:19.797Z,100059.38
2023-01-13T14:01:53.603Z,100067.28
2023-01-13T14:04:22.856Z,100067.28
2023-01-13T14:07:18.433Z,100078.72
2023-01-13T14:09:50.382Z,100076.94
2023-01-13T14:12:22.710Z,100092.94
2023-01-13T14:14:49.992Z,100100.94
2023-01-13T14:17:26.259Z,100113.38
2023-01-13T14:20:00.794Z,100123.97
2023-01-13T14:22:27.403Z,100088.31
2023-01-13T14:24:58.104Z,100131.06
2023-01-13T14:27:27.556Z,100126.84
2023-01-13T14:29:59.514Z,100135.50
2023-01-13T14:32:35.995Z,100129.16
2023-01-13T14:35:06.857Z,100118.63
2023-01-13T14:37:39.305Z,100137.22
2023-01-13T14:40:06.370Z,100142.38
2023-01-13T14:42:35.469Z,100147.00
2023-01-13T14:45:03.175Z,100156.84
2023-01-13T14:47:33.138Z,100158.63
2023-01-13T14:50:06.098Z,100169.28
2023-01-13T14:52:37.671Z,100169.22
2023-01-13T14:55:08.666Z,100187.88
2023-01-13T14:57:36.616Z,100177.44
2023-01-13T15:00:15.226Z,100195.97
2023-01-13T15:02:48.590Z,100189.88
2023-01-13T15:05:26.960Z,100199.56
2023-01-13T15:07:57.494Z,100221.88
2023-01-13T15:10:38.400Z,100228.88
2023-01-13T15:13:06.813Z,100242.97
2023-01-13T15:15:35.475Z,100239.38
2023-01-13T15:18:14.084Z,100259.69
2023-01-13T15:20:41.271Z,100250.03
2023-01-13T15:23:08.083Z,100249.84
2023-01-13T15:25:40.648Z,100255.25
2023-01-13T15:28:08.281Z,100260.53
2023-01-13T15:30:34.898Z,100251.72
2023-01-13T15:33:01.508Z,100257.06
2023-01-13T15:35:28.948Z,100267.88
2023-01-13T15:37:57.032Z,100272.50
2023-01-13T15:40:26.662Z,100273.59
2023-01-13T15:43:11.665Z,100284.44
2023-01-13T15:45:56.821Z,100281.06
2023-01-13T15:48:24.467Z,100291.88
2023-01-13T15:50:51.275Z,100292.75
2023-01-13T15:53:18.200Z,100292.91
2023-01-13T15:55:47.407Z,100291.97
2023-01-13T15:58:14.309Z,100300.81
2023-01-13T16:00:41.934Z,100310.56
2023-01-13T16:03:15.480Z,100322.19
2023-01-13T16:05:42.156Z,100310.78
2023-01-13T16:08:15.822Z,100311.53
2023-01-13T16:10:42.782Z,100315.22
2023-01-13T16:13:09.526Z,100327.69
2023-01-13T16:15:36.835Z,100328.69
2023-01-13T16:18:04.696Z,100341.06
2023-01-13T16:20:31.318Z,100346.34
2023-01-13T16:22:57.920Z,100354.41
2023-01-13T16:25:26.808Z,100350.97
2023-01-13T16:27:53.416Z,100352.63
2023-01-13T16:30:37.997Z,100358.00
2023-01-13T16:33:04.625Z,100368.53
2023-01-13T16:35:35.333Z,100362.34
2023-01-13T16:38:01.944Z,100376.59
2023-01-13T16:40:31.373Z,100360.59
2023-01-13T16:42:58.013Z,100381.81
2023-01-13T16:45:25.123Z,100383.84
2023-01-13T16:47:51.767Z,100391.78
2023-01-13T16:50:41.621Z,100389.78
2023-01-13T16:53:09.569Z,100395.19
2023-01-13T16:55:36.729Z,100390.66
2023-01-13T16:58:03.653Z,100400.50
2023-01-13T17:00:30.264Z,100402.28
2023-01-13T17:03:01.111Z,100412.94
2023-01-13T17:05:27.857Z,100426.38
2023-01-13T17:07:54.413Z,100427.16
2023-01-13T17:10:23.559Z,100432.50
2023-01-13T17:12:50.411Z,100446.75
2023-01-13T17:15:19.234Z,100445.72
2023-01-13T17:17:52.071Z,100445.00
2023-01-13T17:20:19.125Z,100451.19
2023-01-13T17:22:49.745Z,100449.50
2023-01-13T17:25:21.621Z,100464.59
2023-01-13T17:27:48.210Z,100455.66
2023-01-13T17:30:15.174Z,100471.53
2023-01-13T17:32:42.154Z,100481.47
2023-01-13T17:35:09.425Z,100478.72
2023-01-13T17:37:35.977Z,100484.06
2023-01-13T17:40:02.570Z,100495.63
2023-01-13T17:42:29.682Z,100494.94
2023-01-13T17:44:56.425Z,100508.16
2023-01-13T17:47:23.013Z,100505.59
2023-01-13T17:49:49.607Z,100521.59
2023-01-13T17:52:16.339Z,100526.88
2023-01-13T17:54:44.038Z,100515.34
2023-01-13T17:57:10.749Z,100530.47
2023-01-13T17:59:37.316Z,100521.69
2023-01-13T18:02:04.860Z,100527.03
2023-01-13T18:04:31.588Z,100533.28
2023-01-13T18:06:58.190Z,100530.59
2023-01-13T18:09:25.916Z,100541.25
2023-01-13T18:11:53.202Z,100542.09
2023-01-13T18:14:22.571Z,100547.44
2023-01-13T18:16:49.259Z,100552.78
2023-01-13T18:19:35.061Z,100549.22
2023-01-13T18:22:21.118Z,100548.34
2023-01-13T18:25:06.221Z,100565.22
2023-01-13T18:27:35.662Z,100566.09
2023-01-13T18:30:04.738Z,100564.34
2023-01-13T18:32:33.221Z,100570.53
2023-01-13T18:35:06.111Z,100583.88
2023-01-13T18:37:35.956Z,100568.78
2023-01-13T18:40:03.470Z,100575.00
2023-01-13T18:42:48.851Z,100571.44
2023-01-13T18:45:15.516Z,100590.94
2023-01-13T18:47:42.387Z,100583.00
2023-01-13T18:50:12.234Z,100587.38
2023-01-13T18:52:38.814Z,100585.63
2023-01-13T18:55:05.680Z,100589.16
2023-01-13T18:57:32.344Z,100580.31
2023-01-13T18:59:58.988Z,100596.31
2023-01-13T19:02:27.754Z,100602.50
2023-01-13T19:04:54.512Z,100610.47
2023-01-13T19:07:25.815Z,100615.81
2023-01-13T19:09:55.502Z,100624.72
2023-01-13T19:12:30.941Z,100630.03
2023-01-13T19:14:58.587Z,100649.53
2023-01-13T19:17:26.581Z,100659.28
2023-01-13T19:19:55.281Z,100654.84
2023-01-13T19:22:23.910Z,100677.06
2023-01-13T19:24:50.884Z,100690.38
2023-01-13T19:27:18.524Z,100693.94
2023-01-13T19:29:52.023Z,100699.22
2023-01-13T19:32:20.733Z,100694.78
2023-01-13T19:34:50.758Z,100701.00
2023-01-13T19:37:17.687Z,100701.88
2023-01-13T19:39:44.314Z,100715.22
2023-01-13T19:42:30.731Z,100717.84
2023-01-13T19:45:16.127Z,100733.84
2023-01-13T19:47:45.247Z,100737.41
2023-01-13T19:50:12.687Z,100738.28
2023-01-13T19:52:39.323Z,100750.72
2023-01-13T19:55:06.345Z,100748.97
2023-01-13T19:57:32.907Z,100754.25
2023-01-13T19:59:59.480Z,100759.59
2023-01-13T20:02:31.424Z,100762.25
2023-01-13T20:05:00.453Z,100772.03
2023-01-13T20:07:29.182Z,100776.47
2023-01-13T20:09:58.806Z,100772.00
2023-01-13T20:12:26.418Z,100782.66
2023-01-13T20:14:53.470Z,100776.47
2023-01-13T20:17:21.835Z,100778.25
2023-01-13T20:19:48.788Z,100777.34
2023-01-13T20:22:15.725Z,100779.09
2023-01-13T20:24:42.446Z,100783.53
2023-01-13T20:27:09.054Z,100786.19
2023-01-13T20:29:35.726Z,100793.34
2023-01-13T20:32:02.745Z,100793.34
2023-01-13T20:34:29.914Z,100797.75
2023-01-13T20:36:56.630Z,100809.31
2023-01-13T20:39:28.114Z,100809.31
2023-01-13T20:42:13.940Z,100823.47
2023-01-13T20:44:41.040Z,100826.16
2023-01-13T20:47:08.189Z,100827.00
2023-01-13T20:49:36.856Z,100819.94
2023-01-13T20:52:09.277Z,100833.25
2023-01-13T20:54:36.815Z,100843.06
2023-01-13T20:57:05.036Z,100832.34
2023-01-13T20:59:31.611Z,100843.91
2023-01-13T21:01:58.212Z,100843.00
2023-01-13T21:04:24.773Z,100843.03
2023-01-13T21:06:52.276Z,100848.38
2023-01-13T21:09:19.047Z,100854.56
2023-01-13T21:12:03.845Z,100859.91
2023-01-13T21:14:49.084Z,100860.78
2023-01-13T21:17:34.173Z,100869.63
2023-01-13T21:20:01.627Z,100877.66
2023-01-13T21:22:29.334Z,100871.44
2023-01-13T21:24:56.005Z,100877.66
2023-01-13T21:27:22.624Z,100878.53
2023-01-13T21:29:49.193Z,100879.41
2023-01-13T21:32:15.823Z,100886.53
2023-01-13T21:34:42.403Z,100887.38
2023-01-13T21:37:08.961Z,100898.91
2023-01-13T21:39:35.566Z,100907.84
2023-01-13T21:42:20.843Z,100914.06
2023-01-13T21:45:06.180Z,100914.00
2023-01-13T21:47:48.428Z,100919.38
2023-01-13T21:50:23.172Z,100915.78
2023-01-13T21:52:52.229Z,100917.59
2023-01-13T21:55:20.537Z,100915.81
2023-01-13T21:57:48.476Z,100920.25
2023-01-13T22:00:15.961Z,100918.50
2023-01-13T22:02:42.958Z,100928.19
2023-01-13T22:05:11.614Z,100922.88
2023-01-13T22:07:39.123Z,100930.00
2023-01-13T22:10:08.528Z,100944.22
2023-01-13T22:12:35.280Z,100937.09
2023-01-13T22:15:01.952Z,100938.00
2023-01-13T22:17:31.466Z,100945.13
2023-01-13T22:19:58.997Z,100970.84
2023-01-13T22:22:26.476Z,100961.06
2023-01-13T22:24:53.605Z,100967.25
2023-01-13T22:27:25.570Z,100961.94
2023-01-13T22:29:52.985Z,100964.63
2023-01-13T22:32:20.907Z,100960.16
2023-01-13T22:34:47.756Z,100973.50
2023-01-13T22:37:14.538Z,100993.91
2023-01-13T22:39:41.190Z,100988.56
2023-01-13T22:42:07.866Z,100993.94
2023-01-13T22:44:34.440Z,100996.59
2023-01-13T22:47:01.051Z,101004.56
2023-01-13T22:49:27.693Z,100995.72
2023-01-13T22:51:54.356Z,100997.47
2023-01-13T22:54:20.984Z,100999.25
2023-01-13T22:56:47.574Z,100998.31
2023-01-13T22:59:14.658Z,101002.81
2023-01-13T23:01:42.217Z,101006.31
2023-01-13T23:04:12.260Z,101015.19
2023-01-13T23:06:39.298Z,101004.56
2023-01-13T23:09:06.035Z,100995.69
2023-01-13T23:11:33.239Z,101008.16
2023-01-13T23:14:02.565Z,101003.72
2023-01-13T23:16:30.919Z,101008.13
2023-01-13T23:18:58.302Z,101005.41
2023-01-13T23:21:27.527Z,101002.78
2023-01-13T23:23:54.373Z,101001.88
2023-01-13T23:26:21.513Z,101013.47
2023-01-13T23:28:48.492Z,101020.56
2023-01-13T23:31:17.890Z,101026.75
2023-01-13T23:33:44.831Z,101025.88
2023-01-13T23:36:17.021Z,101013.41
2023-01-13T23:38:44.779Z,101017.84
2023-01-13T23:41:13.640Z,101013.47
2023-01-13T23:43:40.246Z,101017.88
2023-01-13T23:46:12.467Z,101015.25
2023-01-13T23:48:39.126Z,101017.91
2023-01-13T23:51:08.729Z,101020.50
2023-01-13T23:53:39.939Z,101018.75
2023-01-13T23:56:08.866Z,101018.72
2023-01-13T23:58:35.508Z,101016.13
